Latest Weather Observations for Charlton

IDV60801

Issued at 9:35 pm EST Friday 1 August 2014 (issued every 30 minutes, with the page automatically refreshed every 10 minutes)

About weather observations | Map of weather stations | Latest weather observations for VIC | Other Formats
Station Details ID: 080128 Name: CHARLTON Lat: -36.28 Lon: 143.33 Height: 131.7 m
Data from the previous 72 hours. | See also: Recent months at Charlton
Date/Time
EST
Temp
°C
App
Temp
°C
Dew
Point
Rel
Hum
%
Delta-T
°C
Wind Press
QNH
hPa
Press
MSL
hPa
Rain
since 9 am
mm
Dir
 
Spd
km/h
Gust
km/h
Spd
kts
Gust
kts
01/09:30pm 2.7 -1.1 1.8 94 0.4 W 11 15 6 8 1023.4 - 0.0
01/09:00pm 3.2 -0.2 2.0 92 0.5 WSW 9 13 5 7 1022.7 1022.9 0.0
01/08:30pm 3.7 0.0 2.2 90 0.6 WSW 11 19 6 10 1022.1 - 0.0
01/08:00pm 4.1 0.0 2.3 88 0.7 WSW 13 17 7 9 1021.5 1021.7 0.0
01/07:30pm 4.1 0.0 2.5 89 0.6 W 13 20 7 11 1020.7 - 0.0
01/07:00pm 4.4 0.7 2.6 88 0.7 WSW 11 17 6 9 1020.2 1020.4 0.0
01/06:30pm 4.8 1.6 3.0 88 0.7 SW 9 17 5 9 1019.5 - 0.0
01/06:00pm 5.5 1.1 2.8 83 1.1 WSW 15 26 8 14 1018.6 1018.7 0.0
01/05:30pm 6.8 2.0 2.7 75 1.7 WSW 17 28 9 15 1017.6 - 0.0
01/05:00pm 8.2 4.2 2.9 69 2.3 WSW 13 24 7 13 1016.6 1016.8 0.0
01/04:30pm 8.7 4.0 2.9 67 2.5 WSW 17 24 9 13 1015.9 - 0.0
01/04:00pm 8.9 3.9 3.5 69 2.3 WSW 19 24 10 13 1015.1 1015.3 0.0
01/03:30pm 8.5 3.8 3.4 70 2.2 SSW 17 24 9 13 1014.9 - 0.0
01/03:00pm 8.2 1.4 3.3 71 2.1 SSW 28 35 15 19 1014.0 1014.2 0.0
01/02:30pm 9.1 3.1 3.1 66 2.6 WSW 24 39 13 21 1012.9 - 0.0
01/02:00pm 8.8 2.8 3.6 70 2.3 WSW 24 39 13 21 1012.2 1012.3 0.0
01/01:30pm 9.4 3.5 4.0 69 2.4 WSW 24 39 13 21 1011.8 - 0.0
01/01:00pm 9.3 2.5 3.1 65 2.7 WSW 28 43 15 23 1011.3 1011.4 0.0
01/12:30pm 8.6 3.2 4.4 75 1.9 WSW 22 39 12 21 1011.0 - 0.0
01/12:00pm 8.5 1.8 3.6 71 2.1 W 28 46 15 25 1010.5 1010.6 0.0
01/11:58am 8.7 2.0 3.9 72 2.1 W 28 46 15 25 1010.3 - 0.0
01/11:30am 7.6 1.3 4.0 78 1.6 W 26 43 14 23 1009.6 - 0.0
01/11:00am 7.1 1.2 4.1 81 1.3 WNW 24 43 13 23 1009.4 1009.6 0.0
01/10:45am 7.0 0.4 4.1 82 1.3 WNW 28 46 15 25 1009.4 - 0.0
01/10:30am 6.8 0.6 4.3 84 1.1 WNW 26 39 14 21 1009.4 - 0.0
01/10:00am 5.7 -0.6 3.9 88 0.8 WNW 26 39 14 21 1009.1 1009.3 0.0
01/09:30am 5.1 -0.1 3.8 91 0.5 NW 20 33 11 18 1008.6 - 0.0
01/09:00am 4.8 -0.7 4.1 95 0.3 NW 22 35 12 19 1008.2 1008.4 5.6
01/08:30am 4.4 -0.8 3.8 96 0.3 NW 20 30 11 16 1008.0 - 5.6
01/08:00am 4.3 -0.8 3.9 97 0.2 NW 20 32 11 17 1008.3 1008.5 5.4
01/07:30am 4.0 -1.0 3.6 97 0.2 NW 19 28 10 15 1007.3 - 5.4
01/07:00am 3.7 -1.0 3.3 97 0.2 NW 17 28 9 15 1006.8 1007.0 5.4
01/06:30am 4.0 -1.3 3.0 93 0.4 NW 20 30 11 16 1006.7 - 5.4
01/06:00am 4.7 -1.2 3.7 93 0.4 WNW 24 37 13 20 1006.6 1006.8 5.4
01/05:30am 4.5 -0.7 3.5 93 0.4 NW 20 35 11 19 1006.5 - 5.4
01/05:00am 4.0 -0.7 3.1 94 0.4 NW 17 24 9 13 1006.5 1006.7 5.4
01/04:30am 4.0 -1.1 2.8 92 0.5 NW 19 30 10 16 1006.2 - 5.4
01/04:00am 4.1 -0.9 3.4 95 0.3 NW 19 26 10 14 1006.2 1006.4 5.4
01/03:30am 4.4 -0.8 3.7 95 0.3 WNW 20 33 11 18 1006.4 - 5.4
01/03:00am 4.6 -0.5 3.9 95 0.3 NW 20 30 11 16 1006.3 1006.5 5.4
01/02:30am 4.7 -0.4 4.1 96 0.3 NW 20 32 11 17 1006.2 - 5.4
01/02:00am 4.2 -0.4 3.8 97 0.2 NW 17 24 9 13 1006.5 1006.7 5.4
01/01:30am 4.1 -0.1 3.8 98 0.1 NW 15 22 8 12 1006.3 - 5.2
01/01:00am 4.5 0.3 3.9 96 0.3 NW 15 22 8 12 1006.3 1006.5 5.2
01/12:30am 4.6 0.4 3.9 95 0.3 NW 15 26 8 14 1006.2 - 5.2
01/12:00am 4.7 0.2 4.0 95 0.3 WNW 17 24 9 13 1006.3 1006.5 5.2
 
Date/Time
EST
Temp
°C
App
Temp
°C
Dew
Point
Rel
Hum
%
Delta-T
°C
Wind Press
QNH
hPa
Press
MSL
hPa
Rain
since 9 am
mm
Dir
 
Spd
km/h
Gust
km/h
Spd
kts
Gust
kts
31/11:30pm 4.7 0.1 3.7 93 0.4 WNW 17 24 9 13 1006.2 - 5.2
31/11:00pm 5.1 1.3 3.8 91 0.6 NW 13 22 7 12 1005.9 1006.1 5.2
31/10:30pm 5.5 1.3 4.0 90 0.6 NW 15 20 8 11 1005.8 - 5.2
31/10:00pm 5.7 2.0 4.3 91 0.6 WNW 13 19 7 10 1005.7 1005.9 5.2
31/09:30pm 5.8 2.1 4.4 91 0.6 W 13 19 7 10 1005.6 - 5.2
31/09:00pm 5.9 1.5 5.0 94 0.4 WSW 17 35 9 19 1005.6 1005.8 5.2
31/08:30pm 6.1 0.8 5.1 93 0.4 WSW 22 43 12 23 1005.7 - 4.8
31/08:14pm 6.1 -0.4 4.9 92 0.5 WSW 28 52 15 28 1005.0 - 4.8
31/08:00pm 7.3 3.0 6.9 97 0.2 W 19 30 10 16 1004.6 1004.8 4.2
31/07:30pm 7.2 2.9 7.1 99 0.0 W 19 30 10 16 1003.8 - 3.0
31/07:00pm 7.4 4.3 7.3 99 0.0 W 13 20 7 11 1003.4 1003.6 2.6
31/06:30pm 7.2 4.1 7.1 99 0.0 W 13 19 7 10 1003.1 - 2.2
31/06:00pm 7.2 3.6 6.9 98 0.1 W 15 22 8 12 1002.9 1003.0 1.6
31/05:30pm 7.3 3.4 6.9 97 0.2 WSW 17 30 9 16 1002.3 - 1.2
31/05:00pm 7.5 2.9 6.6 94 0.4 WSW 20 33 11 18 1002.1 1002.3 0.4
31/04:30pm 9.0 4.3 7.6 91 0.7 WSW 22 39 12 21 1001.5 - 0.0
31/04:03pm 10.4 3.9 6.5 77 1.8 WSW 30 48 16 26 1000.6 - 0.0
31/04:00pm 10.5 3.7 6.8 78 1.8 WSW 32 48 17 26 1000.4 1000.6 0.0
31/03:30pm 12.1 5.4 7.4 73 2.3 WSW 32 54 17 29 999.5 - 0.0
31/03:19pm 15.7 7.5 6.4 54 4.6 W 39 59 21 32 999.1 - 0.0
31/03:00pm 18.8 9.7 3.8 37 7.2 NW 41 78 22 42 998.0 998.2 0.0
31/02:30pm 18.3 8.8 3.8 38 6.9 NW 43 63 23 34 998.8 - 0.0
31/02:00pm 18.5 8.9 3.6 37 7.1 NW 43 63 23 34 999.0 999.2 0.0
31/01:30pm 18.2 9.6 4.4 40 6.6 NW 39 61 21 33 999.4 - 0.0
31/01:00pm 18.0 9.5 5.2 43 6.3 NW 39 61 21 33 1000.0 1000.2 0.0
31/12:30pm 17.4 10.2 6.0 47 5.6 NW 33 56 18 30 1001.2 - 0.0
31/12:00pm 16.7 9.6 6.2 50 5.2 NNW 33 56 18 30 1002.3 1002.5 0.0
31/11:30am 16.1 8.2 6.3 52 4.8 NNW 37 63 20 34 1002.9 - 0.0
31/11:00am 15.6 8.4 6.1 53 4.6 NNW 33 54 18 29 1003.9 1004.1 0.0
31/10:57am 15.6 8.6 6.1 53 4.6 NNW 32 50 17 27 1003.9 - 0.0
31/10:30am 15.0 8.5 6.6 57 4.1 NNW 30 46 16 25 1004.3 - 0.0
31/10:05am 14.0 7.9 6.4 60 3.7 NNW 28 48 15 26 1004.6 - 0.0
31/10:00am 14.0 7.9 6.8 62 3.5 NNW 28 44 15 24 1004.6 1004.8 0.0
31/09:31am 12.8 6.7 6.4 65 3.1 NNW 28 46 15 25 1005.0 - 0.0
31/09:30am 12.7 6.9 6.3 65 3.1 NNW 26 46 14 25 1005.0 - 0.0
31/09:24am 12.4 6.2 6.2 66 2.9 NNW 28 46 15 25 1005.0 - 0.0
31/09:00am 12.1 6.3 6.4 68 2.7 NNW 26 37 14 20 1005.3 1005.5 0.0
31/08:30am 10.8 5.4 6.4 74 2.1 NNW 24 41 13 22 1005.6 - 0.0
31/08:00am 10.3 4.9 6.5 77 1.8 N 24 35 13 19 1005.8 1006.0 0.0
31/07:30am 9.9 4.5 6.4 79 1.6 NNW 24 37 13 20 1006.3 - 0.0
31/07:00am 9.8 4.9 6.9 82 1.4 N 22 35 12 19 1006.5 1006.7 0.0
31/06:30am 9.8 5.4 7.2 84 1.2 NNW 20 32 11 17 1006.9 - 0.0
31/06:00am 10.3 5.2 7.7 84 1.3 N 24 41 13 22 1007.0 1007.2 0.0
31/05:30am 10.6 6.5 7.8 83 1.4 NNW 19 28 10 15 1007.2 - 0.0
31/05:00am 10.4 6.3 7.8 84 1.3 NNW 19 26 10 14 1007.7 1007.9 0.0
31/04:30am 10.4 6.7 8.0 85 1.2 NNW 17 28 9 15 1008.2 - 0.0
31/04:00am 10.4 6.7 8.0 85 1.2 NNW 17 26 9 14 1008.5 1008.7 0.0
31/03:30am 10.6 6.9 8.0 84 1.3 NNW 17 24 9 13 1009.1 - 0.0
31/03:00am 11.3 7.7 8.2 81 1.5 NNW 17 26 9 14 1009.4 1009.6 0.0
31/02:30am 11.8 8.6 8.5 80 1.6 NNW 15 24 8 13 1009.8 - 0.0
31/02:00am 12.4 8.9 8.7 78 1.9 NNW 17 28 9 15 1010.1 1010.4 0.0
31/01:30am 11.8 8.7 8.8 82 1.5 NW 15 24 8 13 1010.6 - 0.0
31/01:00am 11.1 7.9 8.5 84 1.3 NNW 15 26 8 14 1010.9 1011.1 0.0
31/12:30am 11.5 8.3 8.4 81 1.5 NW 15 24 8 13 1011.5 - 0.0
31/12:00am 11.7 8.2 8.6 81 1.5 NW 17 24 9 13 1012.0 1012.2 0.0
 
Date/Time
EST
Temp
°C
App
Temp
°C
Dew
Point
Rel
Hum
%
Delta-T
°C
Wind Press
QNH
hPa
Press
MSL
hPa
Rain
since 9 am
mm
Dir
 
Spd
km/h
Gust
km/h
Spd
kts
Gust
kts
30/11:30pm 12.2 8.3 8.7 79 1.8 NNW 19 30 10 16 1012.4 - 0.0
30/11:00pm 12.4 8.3 8.7 78 1.9 NNW 20 32 11 17 1012.6 1012.8 0.0
30/10:30pm 12.9 9.1 9.0 77 2.0 NNW 19 28 10 15 1012.9 - 0.0
30/10:00pm 12.7 9.3 9.0 78 1.9 NW 17 24 9 13 1013.3 1013.5 0.0
30/09:30pm 12.6 9.5 8.9 78 1.9 NW 15 28 8 15 1013.5 - 0.0
30/09:00pm 12.2 9.1 9.0 81 1.6 NNW 15 24 8 13 1013.5 1013.7 0.0
30/08:30pm 11.9 8.8 8.7 81 1.6 NNW 15 24 8 13 1013.4 - 0.0
30/08:00pm 12.2 9.5 9.0 81 1.6 NNW 13 20 7 11 1013.4 1013.6 0.0
30/07:30pm 13.1 10.5 9.5 79 1.8 NNW 13 20 7 11 1013.4 - 0.0
30/07:00pm 13.2 10.3 9.8 80 1.8 NNW 15 20 8 11 1013.5 1013.7 0.0
30/06:30pm 13.2 10.7 9.6 79 1.9 NNW 13 17 7 9 1013.4 - 0.0
30/06:00pm 14.1 10.8 9.7 75 2.3 NNW 17 24 9 13 1013.3 1013.5 0.0
30/05:30pm 15.0 12.2 10.0 72 2.6 NW 15 22 8 12 1013.4 - 0.0
30/05:00pm 15.4 12.2 10.0 70 2.8 NW 17 28 9 15 1013.4 1013.6 0.0
30/04:30pm 15.7 11.9 9.8 68 3.1 NW 20 32 11 17 1013.4 - 0.0
30/04:00pm 16.0 12.5 10.1 68 3.1 NW 19 30 10 16 1013.3 1013.5 0.0
30/03:30pm 16.1 12.1 10.4 69 3.0 WNW 22 32 12 17 1013.5 - 0.0
30/03:00pm 16.1 12.1 10.6 70 2.9 NW 22 33 12 18 1013.6 1013.8 0.0
30/02:30pm 16.1 11.4 10.8 71 2.8 NW 26 41 14 22 1013.7 - 0.0
30/02:00pm 16.2 11.2 10.9 71 2.8 WNW 28 39 15 21 1013.8 1014.0 0.0
30/01:30pm 16.6 13.1 10.9 69 3.1 WNW 20 32 11 17 1013.9 - 0.0
30/01:00pm 16.6 13.3 11.7 73 2.7 WNW 20 33 11 18 1014.4 1014.6 0.0
30/12:30pm 16.5 12.0 11.4 72 2.8 WNW 26 39 14 21 1014.8 - 0.0
30/12:00pm 15.2 11.1 11.4 78 2.0 WNW 24 37 13 20 1015.5 1015.7 0.0
30/11:30am 14.9 10.8 11.3 79 1.9 WNW 24 39 13 21 1015.7 - 0.0
30/11:00am 14.4 11.1 11.7 84 1.5 NW 20 32 11 17 1016.0 1016.3 0.0
30/10:30am 13.5 10.2 11.7 89 1.0 NW 20 33 11 18 1016.1 - 0.0
30/10:00am 12.8 9.8 11.9 94 0.5 NW 19 35 10 19 1016.2 1016.5 0.0
30/09:30am 12.4 9.9 12.2 99 0.1 NW 17 30 9 16 1016.2 - 0.0
30/09:00am 12.0 9.0 11.8 99 0.1 NW 19 30 10 16 1016.2 1016.5 0.8
30/08:30am 11.9 9.6 11.7 99 0.1 NNW 15 30 8 16 1016.0 - 0.8
30/08:00am 11.9 9.6 11.7 99 0.1 NW 15 22 8 12 1015.5 1015.7 0.8
30/07:30am 11.8 9.5 11.6 99 0.1 NW 15 26 8 14 1015.5 - 0.8
30/07:00am 11.9 9.2 11.7 99 0.1 NW 17 24 9 13 1015.4 1015.6 0.8
30/06:30am 11.8 8.7 11.5 98 0.2 NW 19 33 10 18 1015.1 - 0.8
30/06:00am 12.0 9.3 11.8 99 0.1 NW 17 30 9 16 1014.9 1015.1 0.8
30/05:30am 11.9 9.6 11.7 99 0.1 NW 15 24 8 13 1014.8 - 0.8
30/05:00am 12.0 9.7 11.8 99 0.1 WNW 15 22 8 12 1014.7 1014.9 0.6
30/04:30am 12.2 9.2 12.0 99 0.1 WNW 19 28 10 15 1014.6 - 0.6
30/04:00am 12.3 9.1 12.0 98 0.2 WNW 20 30 11 16 1014.5 1014.7 0.6
30/03:30am 12.1 9.0 12.1 100 0.0 WNW 20 32 11 17 1014.6 - 0.6
30/03:00am 12.4 8.9 12.2 99 0.1 WNW 22 32 12 17 1014.8 1015.0 0.4
30/02:30am 12.6 9.5 12.3 98 0.2 WNW 20 32 11 17 1014.7 - 0.2
30/02:00am 12.6 9.2 12.4 99 0.1 WNW 22 33 12 18 1014.8 1015.0 0.2
30/01:30am 12.6 9.6 12.4 99 0.1 NW 20 35 11 19 1014.8 - 0.2
30/01:00am 12.9 9.4 12.3 96 0.3 NW 22 35 12 19 1014.8 1015.0 0.2
30/12:30am 13.2 10.0 11.8 91 0.8 NW 20 35 11 19 1014.8 - 0.2
30/12:00am 13.0 9.8 11.4 90 0.9 NW 19 30 10 16 1015.0 1015.2 0.2
 
Date/Time
EST
Temp
°C
App
Temp
°C
Dew
Point
Rel
Hum
%
Delta-T
°C
Wind Press
QNH
hPa
Press
MSL
hPa
Rain
since 9 am
mm
Dir
 
Spd
km/h
Gust
km/h
Spd
kts
Gust
kts
29/11:30pm 12.8 9.4 11.2 90 0.8 NW 20 30 11 16 1014.9 - 0.2
29/11:00pm 12.6 9.4 11.2 91 0.7 NW 19 32 10 17 1014.8 1015.0 0.2
29/10:30pm 12.6 8.8 11.2 91 0.7 NW 22 32 12 17 1014.8 - 0.2
29/10:00pm 13.0 9.2 11.2 89 1.0 NW 22 33 12 18 1014.5 1014.7 0.2

Other Formats:

Comma delimited format used in spreadsheet applications
http://www.bom.gov.au/fwo/IDV60801/IDV60801.94839.axf

JavaScript Object Notation format (JSON) in row-major order
http://www.bom.gov.au/fwo/IDV60801/IDV60801.94839.json